McAdam, Canada
Current Conditions -  °F | °C
As of 6:18 PM on Saturday 20 Dec 2014 (Local Time) from CYFC Reporting Station
Overcast Overcast  
Wind Chill: 23°   Ceiling: 2400
Heat Index: 28°   Visibility: 9mi
Dew Point: 25°   Wind: 5mph
Humidity: 86%   Direction: 350°N
Pressure: 30.34"   Gusts: NA
Location:  45.6°N, 67.33°W
Report Text: CYFC 202218Z AUTO 35004KT 9SM OVC024 M02/M04 A3034 RMK SLP277
Loading
Personal Weather Stations






























Interactive Weather Map New forecast layout! Learn more

10-Day Weather Forecast

Advertisements
Track Severe Weather on mobile